Decoded Metar for PASL (SLEETMUTE in AK, USA) (IATA:SLQ) | Meteo·Mobile Aviation Weather
aviador You're here:

PASL Decoded Metar

SLEETMUTE in AK, USA
Report Time2018-08-21 19:02:00
UTC Time2018-08-21 19:55:24
Flight Rules vfr VFR
WindVRB at 03 kt
Visibility9999 m
Phenomena:N/A
Clouds:Few 020 Hf
Broken 060 Hf
Broken 075 Hf
Expected CloudBase > 800 ft AGL from Temp-Dew spread
Ceiling6,000 ft
Temp14°C (ISA -1)
Dew Point12°C (88% RH)
AAT13.6°C
QNH1008 hPa
Density Alt463 ft
Elevation180 ft
Report Wrong Elevation
Raw Report
PASL 211902Z AUTO VRB03KT 10SM FEW020 BKN060 BKN075 14/12 A2976
RMK AO2 SLP074 T01390122=

Extra information for PASL:More info

Metar Taf Metar & Taf Last 4 Metars F.Rules Stats Wind Profile Meteogram Temp Stats Airport Information Weather charts Add Link Nearby VenuesMetar ALERT Operation Metar Decoded Social comments

AIRNAV info for PASL